createdAt,value
2022-10-04T00:05:03.281Z,7.82
2022-10-04T00:10:19.747Z,7.95
2022-10-04T00:21:10.265Z,10.82
2022-10-04T00:26:50.268Z,7.43
2022-10-04T00:32:28.201Z,6.35
2022-10-04T00:37:57.315Z,9.38
2022-10-04T00:43:05.517Z,5.32
2022-10-04T00:48:48.777Z,7.38
2022-10-04T00:54:02.506Z,11.30
2022-10-04T00:59:32.651Z,11.77
2022-10-04T01:04:44.151Z,6.60
2022-10-04T01:09:54.770Z,9.75
2022-10-04T01:15:07.568Z,4.95
2022-10-04T01:20:32.371Z,7.03
2022-10-04T01:25:49.632Z,8.25
2022-10-04T01:30:54.351Z,6.93
2022-10-04T01:35:58.936Z,17.27
2022-10-04T01:41:08.575Z,7.63
2022-10-04T01:46:16.777Z,11.98
2022-10-04T01:51:25.267Z,6.20
2022-10-04T01:56:35.005Z,10.55
2022-10-04T02:01:44.580Z,9.43
2022-10-04T02:06:53.201Z,8.18
2022-10-04T02:11:59.274Z,9.13
2022-10-04T02:17:10.625Z,11.88
2022-10-04T02:22:14.954Z,10.98
2022-10-04T02:27:20.444Z,10.13
2022-10-04T02:32:42.233Z,9.20
2022-10-04T02:37:48.492Z,9.70
2022-10-04T02:43:00.978Z,10.75
2022-10-04T02:48:13.941Z,10.13
2022-10-04T02:53:22.755Z,9.07
2022-10-04T02:58:30.906Z,12.07
2022-10-04T03:03:39.924Z,9.38
2022-10-04T03:08:52.754Z,10.80
2022-10-04T03:14:05.728Z,13.55
2022-10-04T03:19:14.565Z,15.85
2022-10-04T03:24:21.797Z,11.07
2022-10-04T03:29:32.681Z,15.20
2022-10-04T03:34:40.198Z,8.23
2022-10-04T03:39:47.231Z,7.53
2022-10-04T03:44:55.279Z,13.90
2022-10-04T03:50:02.576Z,7.20
2022-10-04T03:55:11.908Z,7.70
2022-10-04T04:00:21.620Z,7.13
2022-10-04T04:05:32.600Z,6.43
2022-10-04T04:10:44.625Z,15.02
2022-10-04T04:15:53.290Z,8.63
2022-10-04T04:21:04.172Z,11.10
2022-10-04T04:26:25.106Z,8.98
2022-10-04T04:31:36.518Z,7.47
2022-10-04T04:36:41.865Z,10.45
2022-10-04T04:41:50.154Z,7.50
2022-10-04T04:47:00.800Z,14.32
2022-10-04T04:52:05.166Z,9.10
2022-10-04T04:57:10.570Z,9.85
2022-10-04T05:02:35.639Z,11.15
2022-10-04T05:07:44.334Z,5.23
2022-10-04T05:12:52.892Z,10.20
2022-10-04T05:18:02.716Z,6.57
2022-10-04T05:23:15.068Z,8.98
2022-10-04T05:28:22.774Z,8.40
2022-10-04T05:33:46.702Z,9.95
2022-10-04T05:39:04.435Z,7.60
2022-10-04T05:44:27.608Z,9.63
2022-10-04T05:49:43.956Z,8.73
2022-10-04T05:54:52.106Z,9.88
2022-10-04T06:00:09.918Z,9.32
2022-10-04T06:05:28.859Z,6.70
2022-10-04T06:10:59.224Z,5.60
2022-10-04T06:16:16.907Z,5.22
2022-10-04T06:21:25.684Z,8.57
2022-10-04T06:26:41.186Z,6.97
2022-10-04T06:32:22.275Z,5.90
2022-10-04T06:37:56.766Z,6.22
2022-10-04T06:43:20.212Z,6.60
2022-10-04T06:48:57.966Z,9.80
2022-10-04T06:54:16.377Z,5.57
2022-10-04T07:00:04.870Z,14.15
2022-10-04T07:05:20.597Z,8.60
2022-10-04T07:10:34.536Z,7.05
2022-10-04T07:15:53.765Z,9.60
2022-10-04T07:21:07.094Z,6.10
2022-10-04T07:26:22.510Z,10.75
2022-10-04T07:31:29.270Z,8.40
2022-10-04T07:36:45.037Z,9.52
2022-10-04T07:41:54.519Z,6.38
2022-10-04T07:47:04.296Z,11.23
2022-10-04T07:52:32.315Z,10.80
2022-10-04T07:57:47.475Z,7.35
2022-10-04T08:03:12.572Z,10.00
2022-10-04T08:08:40.599Z,10.82
2022-10-04T08:13:53.612Z,9.18
2022-10-04T08:19:20.589Z,7.20
2022-10-04T08:24:36.857Z,11.13
2022-10-04T08:30:02.379Z,10.55
2022-10-04T08:40:12.742Z,9.13
2022-10-04T08:45:58.417Z,8.00
2022-10-04T08:51:24.804Z,10.52
2022-10-04T09:02:07.000Z,8.50
2022-10-04T09:07:39.471Z,6.65
2022-10-04T09:12:57.567Z,9.35
2022-10-04T09:18:21.185Z,5.60
2022-10-04T09:24:04.822Z,9.15
2022-10-04T09:29:24.040Z,7.32
2022-10-04T09:34:39.162Z,10.52
2022-10-04T09:40:07.739Z,10.57
2022-10-04T09:45:32.028Z,10.35
2022-10-04T09:51:08.410Z,8.20
2022-10-04T09:56:43.336Z,12.25
2022-10-04T10:02:13.272Z,11.35
2022-10-04T10:07:38.204Z,7.45
2022-10-04T10:13:21.240Z,11.45
2022-10-04T10:18:42.753Z,12.60
2022-10-04T10:24:09.769Z,8.15
2022-10-04T10:29:54.755Z,12.32
2022-10-04T10:35:43.465Z,11.25
2022-10-04T10:41:01.128Z,6.15
2022-10-04T10:46:21.831Z,6.68
2022-10-04T10:51:47.025Z,5.05
2022-10-04T10:57:18.380Z,6.72
2022-10-04T11:02:51.769Z,4.03
2022-10-04T11:08:08.188Z,4.80
2022-10-04T11:13:41.631Z,3.70
2022-10-04T11:19:19.448Z,7.20
2022-10-04T11:24:56.844Z,7.32
2022-10-04T11:30:17.368Z,7.05
2022-10-04T11:35:46.644Z,9.80
2022-10-04T11:41:11.083Z,6.00
2022-10-04T11:46:25.064Z,8.05
2022-10-04T11:52:07.426Z,5.00
2022-10-04T11:57:32.365Z,7.65
2022-10-04T12:03:14.778Z,10.00
2022-10-04T12:08:39.274Z,8.63
2022-10-04T12:14:06.100Z,7.57
2022-10-04T12:19:54.494Z,4.22
2022-10-04T12:25:27.010Z,10.90
2022-10-04T12:30:44.485Z,12.48
2022-10-04T12:36:13.725Z,10.02
2022-10-04T12:41:29.922Z,7.68
2022-10-04T12:46:46.293Z,8.25
2022-10-04T12:51:59.152Z,8.13
2022-10-04T12:57:20.268Z,11.02
2022-10-04T13:02:49.039Z,5.97
2022-10-04T13:08:12.769Z,8.57
2022-10-04T13:13:42.740Z,8.70
2022-10-04T13:18:56.561Z,13.07
2022-10-04T13:24:09.032Z,15.35
2022-10-04T13:29:24.370Z,7.18
2022-10-04T13:34:37.790Z,9.35
2022-10-04T13:39:59.013Z,9.02
2022-10-04T13:45:24.448Z,9.15
2022-10-04T13:50:39.418Z,7.45
2022-10-04T13:56:07.115Z,12.23
2022-10-04T14:01:41.730Z,12.95
2022-10-04T14:12:49.906Z,7.95
2022-10-04T14:18:27.456Z,7.63
2022-10-04T14:23:58.198Z,6.13
2022-10-04T14:29:35.788Z,6.53
2022-10-04T14:34:57.229Z,10.18
2022-10-04T14:40:19.762Z,7.68
2022-10-04T14:45:39.842Z,10.45
2022-10-04T14:50:57.883Z,8.38
2022-10-04T14:56:37.131Z,7.80
2022-10-04T15:02:07.370Z,5.00
2022-10-04T15:07:21.567Z,6.47
2022-10-04T15:18:29.312Z,7.30
2022-10-04T15:23:43.603Z,5.22
2022-10-04T15:29:03.688Z,6.57
2022-10-04T15:34:25.197Z,10.40
2022-10-04T15:39:43.132Z,10.52
2022-10-04T15:45:30.133Z,10.73
2022-10-04T15:50:40.977Z,8.45
2022-10-04T15:56:12.847Z,12.05
2022-10-04T16:01:55.305Z,13.30
2022-10-04T16:07:12.984Z,15.05
2022-10-04T16:12:25.288Z,12.93
2022-10-04T16:18:00.350Z,14.25
2022-10-04T16:23:28.070Z,15.70
2022-10-04T16:29:04.771Z,14.50
2022-10-04T16:34:31.829Z,16.02
2022-10-04T16:40:02.993Z,17.15
2022-10-04T16:45:33.577Z,12.15
2022-10-04T16:51:03.954Z,13.38
2022-10-04T16:56:16.573Z,9.98
2022-10-04T17:02:11.369Z,10.82
2022-10-04T17:07:24.442Z,9.32
2022-10-04T17:12:38.863Z,14.88
2022-10-04T17:17:48.133Z,18.42
2022-10-04T17:23:05.886Z,19.08
2022-10-04T17:28:26.380Z,17.70
2022-10-04T17:33:53.777Z,12.43
2022-10-04T17:39:09.327Z,15.45
2022-10-04T17:44:42.058Z,11.88
2022-10-04T17:50:18.061Z,11.98
2022-10-04T17:55:28.837Z,15.47
2022-10-04T18:00:52.389Z,14.15
2022-10-04T18:05:59.343Z,11.57
2022-10-04T18:11:07.039Z,12.43
2022-10-04T18:16:22.489Z,12.43
2022-10-04T18:21:29.681Z,16.85
2022-10-04T18:26:34.665Z,11.65
2022-10-04T18:31:41.397Z,12.50
2022-10-04T18:36:54.059Z,11.90
2022-10-04T18:42:19.837Z,11.32
2022-10-04T18:47:33.601Z,8.93
2022-10-04T18:52:45.850Z,16.98
2022-10-04T18:58:13.865Z,17.77
2022-10-04T19:03:28.998Z,17.42
2022-10-04T19:08:40.961Z,16.77
2022-10-04T19:13:52.284Z,15.07
2022-10-04T19:19:34.393Z,21.25
2022-10-04T19:25:01.867Z,15.75
2022-10-04T19:30:18.205Z,11.35
2022-10-04T19:35:35.029Z,13.23
2022-10-04T19:40:49.353Z,10.45
2022-10-04T19:46:11.278Z,12.45
2022-10-04T19:51:28.364Z,8.93
2022-10-04T19:56:40.000Z,10.52
2022-10-04T20:01:45.086Z,12.63
2022-10-04T20:06:50.115Z,14.80
2022-10-04T20:11:55.467Z,11.93
2022-10-04T20:17:07.166Z,14.90
2022-10-04T20:22:29.531Z,15.02
2022-10-04T20:28:03.821Z,15.65
2022-10-04T20:33:07.951Z,15.82
2022-10-04T20:38:31.808Z,16.38
2022-10-04T20:43:54.748Z,14.80
2022-10-04T20:48:59.633Z,16.20
2022-10-04T20:54:03.664Z,21.10
2022-10-04T20:59:16.814Z,16.67
2022-10-04T21:04:30.038Z,13.30
2022-10-04T21:09:36.063Z,12.40
2022-10-04T21:14:41.543Z,13.70
2022-10-04T21:19:46.459Z,9.57
2022-10-04T21:24:56.023Z,9.98
2022-10-04T21:30:02.462Z,10.20
2022-10-04T21:35:08.171Z,11.68
2022-10-04T21:40:13.938Z,15.30
2022-10-04T21:45:19.926Z,11.02
2022-10-04T21:50:24.119Z,13.73
2022-10-04T21:55:28.079Z,15.57
2022-10-04T22:00:34.329Z,10.90
2022-10-04T22:05:38.522Z,16.27
2022-10-04T22:10:43.582Z,12.80
2022-10-04T22:15:49.129Z,11.93
2022-10-04T22:20:53.093Z,14.45
2022-10-04T22:25:57.707Z,13.05
2022-10-04T22:31:03.190Z,12.50
2022-10-04T22:36:16.053Z,13.73
2022-10-04T22:41:20.975Z,12.30
2022-10-04T22:46:34.721Z,16.08
2022-10-04T22:52:02.739Z,16.10
2022-10-04T22:57:06.885Z,13.32
2022-10-04T23:02:16.128Z,19.40
2022-10-04T23:07:22.079Z,18.35
2022-10-04T23:12:27.730Z,16.65
2022-10-04T23:17:36.143Z,12.38
2022-10-04T23:22:43.392Z,15.95
2022-10-04T23:27:50.572Z,15.88
2022-10-04T23:33:02.382Z,17.52
2022-10-04T23:38:07.432Z,17.02
2022-10-04T23:43:17.042Z,17.67
2022-10-04T23:48:25.530Z,13.07
2022-10-04T23:53:32.581Z,20.55
2022-10-04T23:58:40.137Z,15.90
